Terminal Aerodrome Forecast
Issued by NWS

Home | Current Version | Previous Version | Graphics & Text | Print | Product List | Glossary On
Versions: 1 2 3 4 5 6 7 8 9 10 11 12 13 14 15 16 17 18 19 20 21 22 23 24 25 26 27
411
FTUS43 KLOT 250233 AAA
TAFMDW
TAF AMD
KMDW 250233Z 2503/2524 29009KT P6SM -DZ SCT008 OVC015
     FM250600 29013G20KT 4SM BR VCSH OVC008
      TEMPO 2506/2508 2SM -RASN BR
     FM251000 29015G23KT 2SM -SN BR OVC015
     FM251200 29016G24KT 4SM -SN BR OVC015 PROB30 2512/2515 2SM -SN
      BR OVC007
     FM251600 30018G26KT P6SM OVC020
     FM252300 29016G24KT P6SM BKN035=

USA.gov is the U.S. government's official web portal to all federal, state and local government web resources and services.